• Join FlightAware (Why Join?)
  • Login
  • US Flag 
04:15AM EDT


 

Airport Tracker/Info


-or-


 

Live Flight TrackerFlight Track Log ✈ AAL2007 ✈ 29-Jul-2013 ✈ KORD - KAUS

Flight Track Log - Related Links

Times and Time Zones

All times are in EDT time to prevent confusion due to time zone crossing. See the AAL2007 flight status page for this flight to view local times or setup timezone preferences in your user account.

Time Position Orientation Groundspeed Altitude Reporting Facility
EDT Latitude Longitude Course Direction KTS MPH feet Rate Location/Type
06:02PM 41.9167 -87.9167 207° Southwest 178 205 3,100  Level Chicago TRACON
06:04PM 41.7946 -88.0943 201° Southwest  Level Estimated
06:04PM 41.8667 -87.9500 206° Southwest 239 275 4,800  Level Chicago TRACON
06:04PM 41.8000 -87.9833 200° South 277 319 7,300 2,940 Climbing Chicago TRACON
06:05PM 41.6780 -88.0877 178° South  Level FlightAware Approximate
06:05PM 41.7375 -88.0206 204° Southwest 285 328 10,000  Level Chicago Center
06:06PM 41.5847 -88.1816 197° South  Level Estimated
06:06PM 41.6586 -88.0564 199° South 295 339 12,400  Level Chicago Center
06:07PM 41.4913 -88.2752 194° South  Level Estimated
06:07PM 41.5772 -88.0983 201° Southwest 310 357 14,900  Level Chicago Center
06:08PM 41.4018 -88.3646 207° Southwest  Level Estimated
06:08PM 41.4903 -88.1403 200° South 313 360 15,000  Level Chicago Center
06:09PM 41.4064 -88.1806 200° South 319 367 15,100 660 Climbing Chicago Center
06:10PM 41.3081 -88.2261 199° South 374 430 16,400 1,620 Climbing Chicago Center
06:12PM 41.2025 -88.2686 197° South 393 452 18,500 1,980 Climbing Chicago Center
06:13PM 41.0961 -88.3231 201° Southwest 408 470 20,500 1,800 Climbing Chicago Center
06:14PM 40.9842 -88.3714 198° South 419 482 22,300 1,740 Climbing Chicago Center
06:15PM 40.8458 -88.4319 198° South 430 495 24,100 1,500 Climbing Chicago Center
06:16PM 40.7250 -88.4869 199° South 448 516 25,500 1,260 Climbing Chicago Center
06:17PM 40.6053 -88.5497 202° Southwest 460 529 26,800 1,140 Climbing Chicago Center
06:18PM 40.5136 -88.6614 223° Southwest 446 513 27,900 1,020 Climbing Chicago Center
06:19PM 40.4156 -88.7686 220° Southwest 455 524 29,000 1,080 Climbing Chicago Center
06:20PM 40.3192 -88.8789 221° Southwest 460 529 30,200 1,320 Climbing Chicago Center
06:21PM 40.2217 -88.9867 220° Southwest 458 527 31,800 840 Climbing Chicago Center
06:22PM 40.1108 -89.1142 221° Southwest 442 509 32,000 60 Climbing Chicago Center
06:23PM 40.0186 -89.2178 221° Southwest 437 503 32,000  Level Chicago Center
06:24PM 39.9239 -89.3222 220° Southwest 441 507 32,000  Level Chicago Center
06:25PM 39.8308 -89.4258 221° Southwest 440 506 32,000  Level Chicago Center
06:26PM 39.7383 -89.5281 220° Southwest 437 503 32,000  Level Chicago Center
06:27PM 39.6453 -89.6317 221° Southwest 438 504 32,000  Level Chicago Center
06:28PM 39.5347 -89.7547 221° Southwest 438 504 32,000  Level Chicago Center
06:29PM 39.4425 -89.8542 220° Southwest 431 496 32,000  Level Chicago Center
06:30PM 39.3500 -89.9536 220° Southwest 431 496 32,000  Level Chicago Center
06:31PM 39.2586 -90.0539 220° Southwest 430 495 32,000  Level Chicago Center
06:33PM 39.1325 -90.1911 220° Southwest 431 496 32,000  Level Kansas City Center
06:34PM 39.0394 -90.2931 220° Southwest 438 504 32,000  Level Kansas City Center
06:35PM 38.9467 -90.3928 220° Southwest 438 504 32,000  Level Kansas City Center
06:36PM 38.8489 -90.5003 221° Southwest 435 501 32,000  Level Kansas City Center
06:37PM 38.7567 -90.6047 221° Southwest 438 504 32,000 240 Level Kansas City Center
06:38PM 38.6594 -90.7175 222° Southwest 438 504 32,500 660 Climbing Kansas City Center
06:39PM 38.5714 -90.8181 222° Southwest 431 496 33,400 720 Climbing Kansas City Center
06:40PM 38.4836 -90.9194 222° Southwest 431 496 34,000 240 Climbing Kansas City Center
06:41PM 38.3750 -91.0419 222° Southwest 434 499 34,000  Level Kansas City Center
06:42PM 38.2836 -91.1453 222° Southwest 438 504 34,000  Level Kansas City Center
06:43PM 38.1917 -91.2492 222° Southwest 441 507 34,000  Level Kansas City Center
06:44PM 38.1031 -91.3494 222° Southwest 439 505 34,000  Level Kansas City Center
06:45PM 38.0103 -91.4547 222° Southwest 441 507 34,000  Level Kansas City Center
06:46PM 37.9167 -91.5581 221° Southwest 442 509 34,000  Level Kansas City Center
06:47PM 37.8097 -91.6817 222° Southwest 435 501 34,000  Level Kansas City Center
06:48PM 37.7169 -91.7836 221° Southwest 435 501 34,000  Level Kansas City Center
06:49PM 37.6261 -91.8844 221° Southwest 435 501 34,000  Level Kansas City Center
06:50PM 37.5347 -91.9875 222° Southwest 436 502 34,000  Level Kansas City Center
06:51PM 37.4428 -92.0881 221° Southwest 435 501 34,000  Level Kansas City Center
06:52PM 37.3514 -92.1908 222° Southwest 436 502 34,000  Level Kansas City Center
06:53PM 37.2569 -92.2936 221° Southwest 442 509 34,000  Level Kansas City Center
06:54PM 37.1633 -92.3964 221° Southwest 443 510 34,000  Level Kansas City Center
06:55PM 37.0706 -92.4958 221° Southwest 440 506 34,000  Level Kansas City Center
06:56PM 36.9769 -92.5969 221° Southwest 440 506 34,000  Level Kansas City Center
06:57PM 36.8831 -92.6989 221° Southwest 443 510 34,000  Level Kansas City Center
06:58PM 36.7700 -92.8208 221° Southwest 445 512 34,000  Level Kansas City Center
06:59PM 36.6756 -92.9222 221° Southwest 446 513 34,000  Level Kansas City Center
07:00PM 36.5836 -93.0186 220° Southwest 445 512 34,000  Level Kansas City Center
07:01PM 36.4917 -93.1161 220° Southwest 440 506 34,000  Level Kansas City Center
07:02PM 36.3997 -93.2150 221° Southwest 441 507 34,000  Level Kansas City Center
07:03PM 36.3050 -93.3158 221° Southwest 444 511 34,000  Level Memphis Center
07:04PM 36.2131 -93.4131 220° Southwest 444 511 34,000  Level Memphis Center
07:05PM 36.1208 -93.5122 221° Southwest 444 511 34,000  Level Memphis Center
07:06PM 36.0267 -93.6114 220° Southwest 444 511 34,000  Level Memphis Center
07:07PM 35.9342 -93.7103 221° Southwest 444 511 34,000  Level Memphis Center
07:08PM 35.8400 -93.8036 219° Southwest 444 511 34,000  Level Memphis Center
07:09PM 35.7475 -93.9022 221° Southwest 444 511 34,000  Level Memphis Center
07:10PM 35.6489 -94.0000 219° Southwest 449 517 34,000  Level Memphis Center
07:11PM 35.5583 -94.0983 221° Southwest 443 510 34,000  Level Memphis Center
07:12PM 35.4636 -94.1933 219° Southwest 443 510 34,000  Level Memphis Center
07:13PM 35.3692 -94.2833 218° Southwest 443 510 34,000  Level Memphis Center
07:15PM 35.1628 -94.4500 213° Southwest 444 511 34,000  Level Fort Worth Center
07:16PM 35.0603 -94.5272 212° Southwest 439 505 34,000  Level Fort Worth Center
07:17PM 34.9558 -94.6092 213° Southwest 439 505 34,000  Level Fort Worth Center
07:18PM 34.8550 -94.6833 211° Southwest 439 505 34,000  Level Fort Worth Center
07:19PM 34.7483 -94.7625 211° Southwest 444 511 34,000  Level Fort Worth Center
07:20PM 34.6458 -94.8414 212° Southwest 449 517 34,000  Level Fort Worth Center
07:21PM 34.5389 -94.9228 212° Southwest 449 517 34,000  Level Fort Worth Center
07:22PM 34.4319 -95.0014 211° Southwest 449 517 34,000  Level Fort Worth Center
07:23PM 34.3269 -95.0797 212° Southwest 454 522 34,000  Level Fort Worth Center
07:24PM 34.2158 -95.1606 211° Southwest 454 522 34,000  Level Fort Worth Center
07:25PM 34.1086 -95.2436 213° Southwest 459 528 34,000  Level Fort Worth Center
07:26PM 33.9994 -95.3217 211° Southwest 459 528 34,000  Level Fort Worth Center
07:27PM 33.8942 -95.3992 211° Southwest 459 528 34,000  Level Fort Worth Center
07:28PM 33.7850 -95.4792 211° Southwest 459 528 34,000  Level Fort Worth Center
07:29PM 33.6775 -95.5589 212° Southwest 459 528 34,000  Level Fort Worth Center
07:30PM 33.5825 -95.6258 210° Southwest 459 528 34,000  Level Fort Worth Center
07:31PM 33.4750 -95.7025 211° Southwest 459 528 34,000  Level Fort Worth Center
07:32PM 33.3675 -95.7817 212° Southwest 459 528 34,000  Level Fort Worth Center
07:33PM 33.2600 -95.8583 211° Southwest 459 528 34,000  Level Fort Worth Center
07:34PM 33.1503 -95.9372 211° Southwest 459 528 34,000  Level Fort Worth Center
07:35PM 33.0447 -96.0156 212° Southwest 459 528 34,000  Level Fort Worth Center
07:36PM 32.9392 -96.0917 211° Southwest 453 521 34,000  Level Fort Worth Center
07:37PM 32.8314 -96.1675 211° Southwest 453 521 34,000  Level Fort Worth Center
07:38PM 32.7214 -96.2453 211° Southwest 453 521 34,000  Level Fort Worth Center
07:39PM 32.6117 -96.3233 211° Southwest 453 521 34,000  Level Fort Worth Center
07:40PM 32.5058 -96.4008 212° Southwest 453 521 34,000  Level Fort Worth Center
07:41PM 32.3978 -96.4783 211° Southwest 453 521 34,000  Level Fort Worth Center
07:42PM 32.2856 -96.5533 209° Southwest 453 521 34,000 -300 Level Fort Worth Center
07:43PM 32.1775 -96.6353 213° Southwest 459 528 33,400 -780 Descending Fort Worth Center
07:44PM 32.0694 -96.7097 210° Southwest 459 528 32,500 -720 Descending Fort Worth Center
07:45PM 31.9531 -96.7964 212° Southwest 459 528 32,000 -780 Descending Fort Worth Center
07:46PM 31.8406 -96.8606 206° Southwest 449 517 31,000 -1,020 Descending Fort Worth Center
07:47PM 31.7239 -96.9250 205° Southwest 456 525 30,000 -1,020 Descending Fort Worth Center
07:48PM 31.6092 -96.9889 205° Southwest 461 531 29,000 -1,020 Descending Fort Worth Center
07:50PM 31.4725 -97.0633 205° Southwest 464 534 27,800 -1,380 Descending Houston Center
07:51PM 31.3661 -97.1228 206° Southwest 425 489 25,900 -2,340 Descending Houston Center
07:52PM 31.2603 -97.1808 205° Southwest 417 480 23,100 -2,460 Descending Houston Center
07:53PM 31.1550 -97.2311 202° Southwest 406 467 20,900 -2,760 Descending Houston Center
07:54PM 31.0375 -97.2767 198° South 384 442 17,500 -3,300 Descending Houston Center
07:55PM 30.9375 -97.3153 198° South 368 423 14,100 -2,220 Descending Houston Center
07:56PM 30.8497 -97.3500 199° South 362 417 13,000 -540 Descending Houston Center
07:57PM 30.7642 -97.3950 204° Southwest 342 394 13,000  Level Houston Center
07:58PM 30.6842 -97.4550 213° Southwest 340 391 13,000 -720 Level Houston Center
07:59PM 30.6258 -97.5369 230° Southwest 338 389 11,600 -1,860 Descending Houston Center
08:00PM 30.5925 -97.6511 251° West 319 367 9,200 -2,160 Descending Houston Center
08:01PM 30.5219 -97.6903 206° Southwest 286 329 7,200 -1,740 Descending Houston Center
08:02PM 30.4492 -97.6850 176° South 264 304 5,700 -1,260 Descending Houston Center
08:03PM 30.3811 -97.6831 179° South 246 283 4,700 -1,020 Descending Houston Center
08:04PM 30.3356 -97.6828 180° South 177 204 3,600 -1,200 Descending Houston Center
08:05PM 30.2931 -97.6808 178° South 161 185 2,300 -1,140 Descending Houston Center
08:06PM 30.2547 -97.6792 178° South 147 169 1,300 -720 Descending Houston Center
08:07PM 30.2217 -97.6786 179° South 137 158 900 -420 Descending Houston Center